Time;durP1;ratioP1;P1;durP2;ratioP2;P2;SDS_P1;SDS_P2;PMS_P1;PMS_P2;Temp;Humidity;BMP_temperature;BMP_pressure;BME280_temperature;BME280_humidity;BME280_pressure;Samples;Min_cycle;Max_cycle;Signal;HPM_P1;HPM_P2
2023/07/04 00:01:19;;;;;;;4.78;3.67;;;;;;;20.84;87.88;94651.34;5091298;28;20218;-44
2023/07/04 00:03:50;;;;;;;3.97;3.67;;;;;;;20.81;87.96;94649.91;5091727;28;20224;-42
2023/07/04 00:06:19;;;;;;;4.03;3.72;;;;;;;20.80;88.31;94651.72;5091353;28;20280;-44
2023/07/04 00:08:48;;;;;;;5.07;3.70;;;;;;;20.77;88.42;94641.75;5091406;28;20197;-45
2023/07/04 00:11:14;;;;;;;4.55;4.13;;;;;;;20.75;88.41;94642.94;5091220;28;20806;-44
2023/07/04 00:13:42;;;;;;;6.93;4.50;;;;;;;20.72;88.52;94648.53;5091142;28;20193;-44
2023/07/04 00:16:11;;;;;;;4.30;3.90;;;;;;;20.69;88.75;94638.56;5091345;28;20197;-44
2023/07/04 00:18:38;;;;;;;4.85;3.67;;;;;;;20.55;89.04;94632.56;5091371;28;20198;-44
2023/07/04 00:21:11;;;;;;;4.80;4.40;;;;;;;20.64;89.23;94651.34;5090966;28;20665;-45
2023/07/04 00:23:41;;;;;;;4.53;4.13;;;;;;;20.65;89.42;94648.56;5091400;28;20224;-43
2023/07/04 00:26:09;;;;;;;5.60;4.47;;;;;;;20.64;89.53;94649.56;5091490;28;20193;-45
2023/07/04 00:28:38;;;;;;;6.03;4.30;;;;;;;20.63;90.02;94650.53;5092464;28;20374;-44
2023/07/04 00:31:06;;;;;;;6.18;4.50;;;;;;;20.58;90.10;94639.16;5090719;28;20196;-44
2023/07/04 00:33:33;;;;;;;4.72;4.10;;;;;;;20.57;89.90;94640.97;5090942;28;20599;-45
2023/07/04 00:36:03;;;;;;;4.78;4.28;;;;;;;20.58;90.22;94646.97;5090644;28;20717;-45
2023/07/04 00:38:32;;;;;;;5.28;3.95;;;;;;;20.31;90.04;94607.97;5090947;28;20665;-46
2023/07/04 00:41:02;;;;;;;4.93;3.92;;;;;;;20.52;90.02;94635.56;5090635;28;20193;-43
2023/07/04 00:43:45;;;;;;;6.32;4.30;;;;;;;20.48;90.07;94636.97;5090639;28;20259;-45
2023/07/04 00:46:14;;;;;;;5.35;4.38;;;;;;;20.50;89.77;94643.53;5090562;28;20182;-45
2023/07/04 00:48:44;;;;;;;4.80;4.38;;;;;;;20.47;90.00;94635.34;5091379;28;20221;-46
2023/07/04 00:51:21;;;;;;;4.50;4.10;;;;;;;20.44;90.16;94633.13;5091262;28;20186;-47
2023/07/04 00:53:50;;;;;;;4.50;4.00;;;;;;;20.40;90.16;94626.75;5091292;28;20256;-45
2023/07/04 00:56:18;;;;;;;5.88;4.07;;;;;;;20.40;90.17;94632.72;5090275;28;20193;-43
2023/07/04 00:58:45;;;;;;;5.35;4.35;;;;;;;20.35;90.29;94637.72;5090372;28;20193;-43
2023/07/04 01:01:12;;;;;;;4.47;4.07;;;;;;;20.36;90.50;94638.53;5090022;28;20189;-45
2023/07/04 01:03:39;;;;;;;4.75;4.35;;;;;;;20.32;90.75;94634.72;5090820;28;20198;-44
2023/07/04 01:06:15;;;;;;;5.75;4.28;;;;;;;20.30;91.18;94633.13;5090412;28;20216;-45
2023/07/04 01:08:45;;;;;;;4.35;3.97;;;;;;;20.25;91.06;94648.53;5090452;28;20185;-44
2023/07/04 01:11:17;;;;;;;4.30;3.90;;;;;;;20.24;91.58;94639.09;5089978;28;20273;-46
2023/07/04 01:13:46;;;;;;;4.72;4.22;;;;;;;20.22;91.74;94641.13;5090367;28;20185;-43
2023/07/04 01:16:15;;;;;;;5.20;4.70;;;;;;;20.19;92.03;94638.91;5089957;28;20185;-43
2023/07/04 01:18:44;;;;;;;5.28;4.53;;;;;;;20.17;92.01;94645.31;5090239;28;20595;-44
2023/07/04 01:21:12;;;;;;;5.65;4.40;;;;;;;20.17;91.99;94642.72;5090075;28;20190;-43
2023/07/04 01:23:47;;;;;;;4.40;4.00;;;;;;;20.15;91.86;94642.91;5090138;28;20273;-44
2023/07/04 01:26:23;;;;;;;4.05;3.75;;;;;;;20.11;91.72;94630.50;5089751;28;20193;-45
2023/07/04 01:28:53;;;;;;;5.63;4.60;;;;;;;20.12;91.57;94635.53;5089725;28;20229;-42
2023/07/04 01:31:20;;;;;;;6.70;4.55;;;;;;;20.09;91.40;94633.31;5089770;28;20752;-43
2023/07/04 01:33:48;;;;;;;5.20;4.70;;;;;;;20.08;91.28;94631.72;5090110;28;20247;-45
2023/07/04 01:36:17;;;;;;;4.47;4.07;;;;;;;20.04;91.50;94635.72;5089471;28;20186;-45
2023/07/04 01:38:44;;;;;;;5.40;4.10;;;;;;;20.03;91.52;94628.91;5090133;28;20200;-45
2023/07/04 01:41:12;;;;;;;4.70;4.13;;;;;;;20.07;91.44;94631.91;5089732;28;20193;-45
2023/07/04 01:43:40;;;;;;;6.15;4.93;;;;;;;20.08;91.12;94633.50;5090210;28;20660;-46
2023/07/04 01:46:07;;;;;;;5.15;4.65;;;;;;;20.08;91.52;94629.13;5090051;28;20209;-43
2023/07/04 01:48:34;;;;;;;5.13;4.63;;;;;;;20.06;91.75;94638.88;5089448;28;20190;-44
2023/07/04 01:51:01;;;;;;;5.57;5.07;;;;;;;19.82;92.22;94600.50;5090554;28;20185;-43
2023/07/04 01:53:27;;;;;;;4.53;4.13;;;;;;;20.08;92.32;94643.88;5089989;28;20254;-43
2023/07/04 01:55:54;;;;;;;6.70;4.65;;;;;;;20.04;92.59;94641.69;5090100;28;20214;-45
2023/07/04 01:58:21;;;;;;;6.88;4.80;;;;;;;19.98;93.02;94639.06;5089867;28;20216;-45
2023/07/04 02:00:49;;;;;;;7.78;5.47;;;;;;;19.94;93.46;94635.28;5090093;28;20186;-43
2023/07/04 02:03:16;;;;;;;5.28;4.78;;;;;;;19.96;93.71;94643.69;5089306;28;20238;-46
2023/07/04 02:05:43;;;;;;;4.93;4.53;;;;;;;19.97;93.69;94643.47;5089592;28;20711;-43
2023/07/04 02:08:11;;;;;;;5.47;4.60;;;;;;;19.95;94.06;94649.88;5089324;28;20705;-42
2023/07/04 02:10:38;;;;;;;8.80;6.10;;;;;;;19.89;95.98;94648.03;5089787;28;20197;-45
2023/07/04 02:13:05;;;;;;;6.60;5.93;;;;;;;19.91;96.34;94646.06;5089262;28;20185;-44
2023/07/04 02:15:32;;;;;;;7.13;5.18;;;;;;;19.94;96.17;94646.44;5089721;28;20215;-44
2023/07/04 02:18:00;;;;;;;5.50;5.00;;;;;;;19.96;95.82;94652.25;5089721;28;20238;-45
2023/07/04 02:20:27;;;;;;;6.35;4.70;;;;;;;19.91;95.76;94654.66;5089877;28;20189;-43
2023/07/04 02:22:54;;;;;;;6.10;5.20;;;;;;;19.89;95.91;94648.84;5089516;28;20607;-43
2023/07/04 02:25:20;;;;;;;8.00;4.40;;;;;;;19.89;95.79;94650.63;5089299;28;20213;-44
2023/07/04 02:27:47;;;;;;;5.10;4.45;;;;;;;19.87;95.87;94644.84;5089620;28;20217;-42
2023/07/04 02:30:14;;;;;;;6.57;4.65;;;;;;;19.83;96.31;94649.63;5089212;28;20657;-44
2023/07/04 02:32:41;;;;;;;8.45;5.40;;;;;;;19.81;96.31;94654.19;5089519;28;20196;-46
2023/07/04 02:35:09;;;;;;;5.18;4.65;;;;;;;19.84;96.27;94642.66;5089101;28;20255;-45
2023/07/04 02:37:36;;;;;;;6.60;5.80;;;;;;;19.79;96.34;94638.84;5089333;28;20247;-44
2023/07/04 02:40:03;;;;;;;8.85;6.03;;;;;;;19.78;96.21;94633.84;5089329;28;20182;-44
2023/07/04 02:42:30;;;;;;;8.80;6.60;;;;;;;19.73;96.24;94631.84;5089781;28;20419;-45
2023/07/04 02:44:57;;;;;;;10.23;7.20;;;;;;;19.71;96.16;94631.22;5089350;28;20592;-46
2023/07/04 02:47:26;;;;;;;9.75;6.22;;;;;;;19.58;96.17;94604.41;5089526;28;20274;-45
2023/07/04 02:49:53;;;;;;;10.00;6.07;;;;;;;19.77;96.30;94637.44;5089133;28;20189;-45
2023/07/04 02:52:22;;;;;;;6.93;5.97;;;;;;;19.74;96.15;94636.03;5089193;28;20198;-44
2023/07/04 02:54:49;;;;;;;10.98;6.30;;;;;;;19.73;96.32;94642.22;5089406;28;20279;-43
2023/07/04 02:57:17;;;;;;;8.20;6.28;;;;;;;19.71;96.46;94644.19;5089233;28;20182;-47
2023/07/04 02:59:45;;;;;;;9.13;6.23;;;;;;;19.67;96.38;94637.81;5090107;28;20209;-44
2023/07/04 03:02:12;;;;;;;9.25;6.68;;;;;;;19.66;96.65;94641.41;5092548;28;20189;-45
2023/07/04 03:04:39;;;;;;;12.70;6.88;;;;;;;19.65;96.80;94647.59;5092869;28;20225;-45
2023/07/04 03:07:06;;;;;;;13.90;7.50;;;;;;;19.73;97.37;94646.59;5092446;28;20506;-44
2023/07/04 03:09:34;;;;;;;10.77;7.32;;;;;;;19.70;97.01;94653.00;5093046;28;20230;-44
2023/07/04 03:12:01;;;;;;;12.05;7.30;;;;;;;19.64;97.12;94645.16;5092705;28;20190;-46
2023/07/04 03:14:28;;;;;;;13.70;7.28;;;;;;;19.63;97.29;94648.75;5092437;28;20185;-45
2023/07/04 03:16:54;;;;;;;13.05;7.50;;;;;;;19.51;97.30;94631.13;5092616;28;20647;-44
2023/07/04 03:19:21;;;;;;;9.40;7.43;;;;;;;19.66;97.23;94650.97;5092376;28;20645;-44
2023/07/04 03:21:48;;;;;;;9.73;6.70;;;;;;;19.69;97.05;94647.97;5092640;28;20177;-44
2023/07/04 03:24:15;;;;;;;9.15;6.68;;;;;;;19.69;97.13;94648.81;5092432;28;20189;-44
2023/07/04 03:26:45;;;;;;;11.25;8.32;;;;;;;19.76;97.56;94654.78;5092191;28;20228;-45
2023/07/04 03:29:11;;;;;;;9.75;8.75;;;;;;;19.76;97.27;94639.22;5092179;28;20226;-44
2023/07/04 03:31:38;;;;;;;19.27;9.10;;;;;;;19.79;97.10;94632.84;5092050;28;20201;-43
2023/07/04 03:34:05;;;;;;;13.57;8.83;;;;;;;19.79;97.20;94636.25;5092312;28;20212;-44
2023/07/04 03:36:32;;;;;;;12.32;8.23;;;;;;;19.83;97.18;94638.47;5091981;28;20197;-45
2023/07/04 03:38:59;;;;;;;10.98;7.50;;;;;;;19.85;96.95;94644.25;5092151;28;20205;-44
2023/07/04 03:41:25;;;;;;;12.32;8.27;;;;;;;19.91;96.87;94648.66;5091856;28;20242;-43
2023/07/04 03:43:53;;;;;;;10.70;7.65;;;;;;;19.91;96.76;94646.06;5091773;28;20235;-43
2023/07/04 03:46:20;;;;;;;9.80;7.70;;;;;;;19.95;96.72;94650.66;5091848;28;20721;-44
2023/07/04 03:48:47;;;;;;;13.63;9.57;;;;;;;19.97;96.44;94650.47;5092470;28;20615;-46
2023/07/04 03:51:14;;;;;;;10.48;8.75;;;;;;;20.01;96.28;94649.06;5091856;28;20197;-44
2023/07/04 03:53:40;;;;;;;21.65;9.77;;;;;;;20.03;95.86;94647.91;5091978;28;20190;-45
2023/07/04 03:56:08;;;;;;;13.73;9.18;;;;;;;20.09;95.62;94659.28;5091719;28;20182;-46
2023/07/04 03:58:34;;;;;;;11.10;8.32;;;;;;;20.12;95.39;94666.69;5091497;28;20182;-44
2023/07/04 04:01:06;;;;;;;17.10;9.35;;;;;;;20.13;95.08;94660.47;5091817;28;20623;-44
2023/07/04 04:03:37;;;;;;;14.07;8.23;;;;;;;20.17;94.47;94666.09;5091475;28;20700;-45
2023/07/04 04:06:06;;;;;;;13.95;7.75;;;;;;;20.07;93.91;94650.06;5091519;28;20232;-45
2023/07/04 04:08:33;;;;;;;9.57;7.43;;;;;;;20.22;93.46;94668.88;5073060;28;20192;-44
2023/07/04 04:11:00;;;;;;;7.78;7.05;;;;;;;20.25;93.17;94663.28;5091387;28;20278;-44
2023/07/04 04:13:27;;;;;;;10.73;8.00;;;;;;;20.30;92.45;94666.09;5091344;28;20657;-43
2023/07/04 04:15:54;;;;;;;12.70;7.63;;;;;;;20.31;92.79;94672.91;5091352;28;20217;-48
2023/07/04 04:18:22;;;;;;;11.75;7.95;;;;;;;20.35;92.54;94678.50;5091463;28;20202;-45
2023/07/04 04:20:49;;;;;;;10.02;7.30;;;;;;;20.37;92.35;94679.09;5091119;28;20189;-45
2023/07/04 04:23:17;;;;;;;13.57;6.53;;;;;;;20.39;91.83;94674.50;5091340;28;20263;-45
2023/07/04 04:25:45;;;;;;;7.85;6.72;;;;;;;20.28;91.51;94674.06;5090629;28;20630;-46
2023/07/04 04:28:13;;;;;;;8.18;6.93;;;;;;;20.22;91.52;94661.09;5090945;28;20230;-47
2023/07/04 04:30:40;;;;;;;7.63;6.57;;;;;;;20.36;92.04;94686.09;5091045;28;20198;-44
2023/07/04 04:33:09;;;;;;;10.07;7.05;;;;;;;20.38;91.40;94683.28;5091315;28;20213;-46
2023/07/04 04:35:40;;;;;;;9.23;6.63;;;;;;;20.35;91.28;94681.88;5090874;28;20193;-44
2023/07/04 04:38:10;;;;;;;7.57;6.15;;;;;;;19.84;91.30;94614.09;5091218;28;20239;-44
2023/07/04 04:40:37;;;;;;;7.03;5.93;;;;;;;20.34;91.64;94692.50;5090957;28;20197;-44
2023/07/04 04:43:04;;;;;;;6.60;5.30;;;;;;;20.36;91.69;94693.88;5072865;28;20201;-44
2023/07/04 04:45:30;;;;;;;10.90;6.50;;;;;;;20.36;91.70;94687.88;5091026;28;20704;-44
2023/07/04 04:47:57;;;;;;;8.55;6.10;;;;;;;20.42;91.48;94689.69;5090501;28;20246;-45
2023/07/04 04:50:30;;;;;;;9.23;6.43;;;;;;;20.49;91.25;94696.50;5090780;28;20247;-45
2023/07/04 04:52:59;;;;;;;8.07;5.97;;;;;;;20.49;91.13;94683.53;5090426;28;20275;-45
2023/07/04 04:55:26;;;;;;;8.45;5.90;;;;;;;20.58;90.44;94691.13;5090334;28;20251;-46
2023/07/04 04:57:53;;;;;;;10.07;6.28;;;;;;;20.58;90.47;94691.94;5090780;28;20209;-45
2023/07/04 05:00:21;;;;;;;7.55;6.47;;;;;;;20.61;90.25;94695.94;5090717;28;20177;-45
2023/07/04 05:02:47;;;;;;;7.53;6.72;;;;;;;20.59;90.30;94690.91;5090387;28;20659;-43
2023/07/04 05:05:15;;;;;;;11.65;6.50;;;;;;;20.59;90.35;94693.50;5090154;28;20205;-44
2023/07/04 05:07:42;;;;;;;9.32;6.55;;;;;;;20.67;90.45;94701.13;5089782;28;20216;-45
2023/07/04 05:10:11;;;;;;;8.07;6.47;;;;;;;20.74;90.34;94691.53;5090799;28;20186;-42
2023/07/04 05:12:38;;;;;;;8.52;6.93;;;;;;;20.82;89.90;94687.16;5090397;28;20620;-44
2023/07/04 05:15:06;;;;;;;10.40;7.18;;;;;;;21.03;89.58;94692.13;5090297;28;20661;-48
2023/07/04 05:17:33;;;;;;;12.57;6.88;;;;;;;21.41;88.66;94687.03;5090411;28;20251;-44
2023/07/04 05:20:00;;;;;;;7.15;6.45;;;;;;;21.82;86.09;94691.13;5090606;28;20223;-46
2023/07/04 05:22:27;;;;;;;11.10;6.75;;;;;;;22.24;84.84;94700.16;5089532;28;20304;-43
2023/07/04 05:24:55;;;;;;;10.00;6.97;;;;;;;22.67;82.33;94689.03;5090397;28;20197;-43
2023/07/04 05:27:23;;;;;;;9.35;5.97;;;;;;;23.09;80.48;94691.09;5089541;28;20263;-43
2023/07/04 05:29:50;;;;;;;9.80;6.45;;;;;;;23.55;78.26;94695.88;5090283;28;20190;-46
2023/07/04 05:32:16;;;;;;;10.98;6.47;;;;;;;23.98;77.23;94689.75;5089566;28;20193;-46
2023/07/04 05:34:48;;;;;;;7.57;6.78;;;;;;;24.52;74.47;94688.84;5090346;28;20193;-44
2023/07/04 05:37:14;;;;;;;12.15;6.07;;;;;;;25.05;72.55;94692.41;5089982;28;20194;-43
2023/07/04 05:39:41;;;;;;;8.32;6.00;;;;;;;25.64;69.75;94692.38;5090017;28;20573;-44
2023/07/04 05:42:08;;;;;;;7.55;5.78;;;;;;;26.09;68.48;94686.47;5090351;28;20197;-45
2023/07/04 05:44:37;;;;;;;7.53;6.28;;;;;;;26.53;66.59;94692.78;5090392;28;20193;-46
2023/07/04 05:47:04;;;;;;;8.15;6.43;;;;;;;26.93;64.97;94697.09;5090028;28;20312;-45
2023/07/04 05:49:30;;;;;;;8.05;6.53;;;;;;;27.40;63.55;94697.53;5090465;28;20194;-45
2023/07/04 05:51:57;;;;;;;10.90;6.15;;;;;;;27.73;62.09;94699.31;5090495;28;20202;-45
2023/07/04 05:54:24;;;;;;;6.57;5.65;;;;;;;28.01;61.67;94705.41;5089646;28;20200;-47
2023/07/04 05:56:52;;;;;;;9.40;6.03;;;;;;;28.17;60.56;94701.91;5089923;28;20673;-46
2023/07/04 05:59:19;;;;;;;7.97;6.40;;;;;;;28.50;59.10;94697.53;5089536;28;20669;-45
2023/07/04 06:01:50;;;;;;;6.60;5.70;;;;;;;28.66;59.31;94698.44;5089861;28;20186;-45
2023/07/04 06:04:17;;;;;;;10.82;5.63;;;;;;;28.66;58.00;94646.59;5089989;28;20186;-45
2023/07/04 06:06:45;;;;;;;5.80;4.97;;;;;;;29.23;57.70;94692.56;5090052;28;20312;-46
2023/07/04 06:09:14;;;;;;;6.38;4.80;;;;;;;29.45;56.75;94692.44;5089510;28;20235;-44
2023/07/04 06:11:45;;;;;;;5.13;4.63;;;;;;;29.35;55.54;94643.09;5090002;28;20181;-44
2023/07/04 06:14:24;;;;;;;5.50;4.85;;;;;;;29.94;55.07;94692.94;5089642;28;20186;-44
2023/07/04 06:16:53;;;;;;;6.63;5.32;;;;;;;30.14;53.63;94684.34;5089782;28;20814;-45
2023/07/04 06:19:20;;;;;;;5.95;4.95;;;;;;;30.12;53.96;94685.59;5089504;28;20205;-42
2023/07/04 06:21:46;;;;;;;6.88;5.80;;;;;;;30.07;53.32;94685.59;5089957;28;20270;-45
2023/07/04 06:24:16;;;;;;;9.35;5.45;;;;;;;29.78;54.29;94696.56;5089387;28;20217;-46
2023/07/04 06:26:43;;;;;;;8.07;5.60;;;;;;;29.91;53.73;94695.31;5089213;28;20247;-45
2023/07/04 06:29:09;;;;;;;15.00;5.28;;;;;;;30.09;53.71;94694.03;5089289;28;20685;-46
2023/07/04 06:31:41;;;;;;;8.25;5.80;;;;;;;30.23;52.14;94693.31;5089570;28;20614;-47
2023/07/04 06:34:09;;;;;;;13.00;4.55;;;;;;;29.95;52.87;94670.00;5090097;28;20194;-46
2023/07/04 06:36:36;;;;;;;5.65;4.22;;;;;;;30.28;52.15;94686.47;5093231;28;20201;-46
2023/07/04 06:39:03;;;;;;;7.63;5.15;;;;;;;30.35;52.98;94694.91;5093588;28;20201;-45
2023/07/04 06:41:31;;;;;;;6.97;6.20;;;;;;;30.37;52.44;94695.47;5093477;28;20205;-45
2023/07/04 06:43:58;;;;;;;8.02;6.43;;;;;;;30.14;52.55;94699.31;5093500;28;20209;-46
2023/07/04 06:46:25;;;;;;;8.13;5.65;;;;;;;30.02;53.18;94699.56;5092813;28;20240;-45
2023/07/04 06:48:53;;;;;;;6.75;5.85;;;;;;;29.96;53.51;94706.66;5093133;28;20189;-45
2023/07/04 06:51:23;;;;;;;9.85;5.88;;;;;;;29.86;52.94;94697.91;5074871;28;20197;-46
2023/07/04 06:53:50;;;;;;;7.70;5.30;;;;;;;29.70;53.87;94694.41;5093094;28;20197;-47
2023/07/04 06:56:22;;;;;;;8.40;5.03;;;;;;;29.74;53.32;94695.50;5092860;28;20200;-45
2023/07/04 06:58:51;;;;;;;6.75;4.85;;;;;;;29.81;53.44;94697.91;5093365;28;20192;-46
2023/07/04 07:01:21;;;;;;;5.40;4.90;;;;;;;29.96;52.42;94695.31;5092979;28;20257;-45
2023/07/04 07:03:49;;;;;;;5.20;4.70;;;;;;;29.98;53.49;94696.66;5074762;28;20193;-46
2023/07/04 07:06:16;;;;;;;5.85;4.57;;;;;;;30.14;53.34;94694.88;5092954;28;20581;-47
2023/07/04 07:08:46;;;;;;;6.57;5.15;;;;;;;30.38;53.38;94691.75;5092838;28;20656;-47
2023/07/04 07:11:15;;;;;;;8.05;5.60;;;;;;;30.59;51.49;94687.31;5093059;28;20193;-45
2023/07/04 07:13:43;;;;;;;9.27;6.20;;;;;;;30.49;52.37;94686.25;5092703;28;20201;-45
2023/07/04 07:16:12;;;;;;;6.78;5.13;;;;;;;30.42;52.75;94690.97;5092515;28;20193;-43
2023/07/04 07:18:40;;;;;;;10.70;5.88;;;;;;;30.44;52.13;94694.16;5092615;28;20194;-47
2023/07/04 07:21:08;;;;;;;8.88;5.57;;;;;;;30.39;52.14;94690.69;5092963;28;20196;-45
2023/07/04 07:23:37;;;;;;;9.70;5.15;;;;;;;30.43;52.90;94691.75;5092511;28;20189;-46
2023/07/04 07:26:08;;;;;;;8.60;4.97;;;;;;;30.76;52.03;94687.88;5092431;28;20821;-44
2023/07/04 07:28:38;;;;;;;7.90;4.88;;;;;;;30.88;52.20;94693.69;5092348;28;20236;-46
2023/07/04 07:31:08;;;;;;;9.25;5.57;;;;;;;30.83;51.91;94693.69;5092576;28;20189;-46
2023/07/04 07:33:37;;;;;;;8.90;6.45;;;;;;;30.75;52.37;94693.44;5092301;28;20193;-46
2023/07/04 07:36:10;;;;;;;7.35;5.82;;;;;;;30.62;51.90;94690.22;5092100;28;20194;-46
2023/07/04 07:38:37;;;;;;;10.25;5.82;;;;;;;30.54;53.40;94689.94;5092656;28;20182;-44
2023/07/04 07:41:06;;;;;;;8.32;4.80;;;;;;;30.88;52.84;94692.88;5092672;28;20223;-46
2023/07/04 07:43:33;;;;;;;8.23;4.53;;;;;;;31.06;52.14;94702.13;5093378;28;20239;-45
2023/07/04 07:46:01;;;;;;;7.32;5.22;;;;;;;31.10;50.42;94693.41;5091594;28;20199;-47
2023/07/04 07:48:28;;;;;;;6.22;4.80;;;;;;;31.13;50.31;94700.81;5092057;28;20190;-47
2023/07/04 07:50:54;;;;;;;7.28;4.60;;;;;;;31.14;49.87;94705.03;5091943;28;20312;-45
2023/07/04 07:53:21;;;;;;;5.15;4.65;;;;;;;31.07;49.47;94707.13;5091737;28;20190;-46
2023/07/04 07:55:49;;;;;;;9.65;4.82;;;;;;;31.13;49.44;94703.44;5091876;28;20679;-46
2023/07/04 07:58:17;;;;;;;8.30;4.45;;;;;;;31.28;49.82;94704.47;5091560;28;20200;-46
2023/07/04 08:00:44;;;;;;;4.97;4.22;;;;;;;31.57;48.62;94704.69;5091878;28;20193;-45
2023/07/04 08:03:11;;;;;;;7.63;4.50;;;;;;;31.75;49.05;94688.25;5091554;28;20216;-46
2023/07/04 08:05:39;;;;;;;10.07;4.88;;;;;;;31.76;48.49;94691.69;5091548;28;20193;-47
2023/07/04 08:08:06;;;;;;;12.68;4.55;;;;;;;31.87;48.39;94695.91;5091550;28;20801;-47
2023/07/04 08:10:36;;;;;;;5.53;3.72;;;;;;;31.98;47.92;94703.50;5092026;28;20461;-46
2023/07/04 08:13:03;;;;;;;8.23;4.63;;;;;;;32.02;47.45;94700.31;5091520;28;20570;-46
2023/07/04 08:15:32;;;;;;;10.05;4.65;;;;;;;32.02;47.45;94702.97;5091602;28;20200;-44
2023/07/04 08:18:04;;;;;;;5.75;3.33;;;;;;;31.98;47.45;94682.34;5091329;28;20221;-46
2023/07/04 08:20:31;;;;;;;7.88;4.47;;;;;;;32.22;46.54;94689.63;5091393;28;20273;-46
2023/07/04 08:22:58;;;;;;;8.40;4.20;;;;;;;32.05;47.12;94694.50;5091136;28;20200;-46
2023/07/04 08:25:25;;;;;;;5.75;4.78;;;;;;;31.87;47.21;94696.69;5091179;28;20197;-44
2023/07/04 08:27:52;;;;;;;6.97;4.93;;;;;;;31.78;47.58;94700.13;5090617;28;20237;-46
2023/07/04 08:30:20;;;;;;;6.10;4.20;;;;;;;31.87;47.68;94687.97;5090665;28;20201;-45
2023/07/04 08:32:48;;;;;;;5.90;4.43;;;;;;;32.06;46.80;94682.84;5090813;28;20200;-47
2023/07/04 08:35:15;;;;;;;8.43;4.43;;;;;;;32.05;46.80;94681.25;5090930;28;20193;-46
2023/07/04 08:37:42;;;;;;;4.20;3.80;;;;;;;32.26;46.15;94692.53;5090831;28;20181;-45
2023/07/04 08:40:11;;;;;;;5.57;4.43;;;;;;;32.38;46.49;94693.78;5091110;28;20669;-43
2023/07/04 08:42:39;;;;;;;9.43;4.53;;;;;;;32.44;45.46;94691.91;5090723;28;20186;-46
2023/07/04 08:45:12;;;;;;;6.00;4.10;;;;;;;32.38;46.25;94685.84;5090482;28;20284;-46
2023/07/04 08:47:41;;;;;;;6.35;4.57;;;;;;;32.48;46.25;94692.94;5090987;28;20232;-46
2023/07/04 08:50:14;;;;;;;7.35;4.03;;;;;;;32.60;45.99;94689.94;5088867;28;20189;-44
2023/07/04 08:52:45;;;;;;;6.43;4.32;;;;;;;32.60;44.38;94685.44;5090994;28;20178;-43
2023/07/04 08:55:15;;;;;;;4.68;4.10;;;;;;;32.64;44.17;94685.66;5090453;28;20193;-46
2023/07/04 08:57:47;;;;;;;5.47;4.97;;;;;;;32.67;45.12;94685.13;5089761;28;20259;-45
2023/07/04 09:00:21;;;;;;;8.45;4.90;;;;;;;32.58;44.79;94668.25;5090597;28;20182;-43
2023/07/04 09:03:13;;;;;;;5.95;4.63;;;;;;;32.65;44.85;94668.72;5090745;28;20255;-45
2023/07/04 09:05:52;;;;;;;6.15;4.93;;;;;;;32.60;44.93;94671.41;5008039;28;20230;-45
2023/07/04 09:08:29;;;;;;;6.30;5.05;;;;;;;32.54;45.17;94675.16;5008150;28;20212;-45
2023/07/04 09:11:02;;;;;;;12.63;4.68;;;;;;;32.49;45.10;94660.09;5008317;28;20196;-45
2023/07/04 09:13:33;;;;;;;10.60;5.10;;;;;;;32.59;44.89;94669.81;5007720;28;20200;-44
2023/07/04 09:16:05;;;;;;;5.15;4.60;;;;;;;32.58;45.57;94679.63;5008120;28;20266;-46
2023/07/04 09:18:40;;;;;;;7.95;4.65;;;;;;;32.53;45.28;94684.97;5007862;28;20216;-44
2023/07/04 09:21:12;;;;;;;6.05;4.78;;;;;;;32.41;45.11;94658.03;5008255;28;20204;-46
2023/07/04 09:23:40;;;;;;;14.20;5.18;;;;;;;32.36;45.12;94672.06;5008306;28;20199;-45
2023/07/04 09:26:10;;;;;;;9.32;5.28;;;;;;;32.25;45.61;94667.91;5008135;28;20189;-45
2023/07/04 09:28:40;;;;;;;6.40;5.20;;;;;;;32.17;46.37;94664.00;5007244;28;20303;-44
2023/07/04 09:31:13;;;;;;;10.40;5.25;;;;;;;32.11;46.71;94662.44;4975438;28;20223;-45
2023/07/04 09:33:41;;;;;;;11.35;5.10;;;;;;;32.13;45.92;94660.31;5007529;28;20196;-46
2023/07/04 09:36:11;;;;;;;8.00;5.25;;;;;;;32.15;45.96;94654.75;5007927;28;20685;-44
2023/07/04 09:38:54;;;;;;;13.23;5.47;;;;;;;32.05;46.93;94666.19;5008504;28;20201;-46
2023/07/04 09:41:25;;;;;;;8.35;5.28;;;;;;;32.13;46.60;94656.88;5007890;28;20184;-46
2023/07/04 09:43:53;;;;;;;10.55;4.88;;;;;;;32.12;46.44;94653.41;5089919;28;20201;-46
2023/07/04 09:46:25;;;;;;;9.68;6.13;;;;;;;31.96;46.17;94647.44;5072672;28;20290;-47
2023/07/04 09:48:53;;;;;;;7.70;5.50;;;;;;;31.86;46.28;94651.97;5090117;28;20189;-48
2023/07/04 09:51:30;;;;;;;7.43;4.78;;;;;;;31.82;46.36;94653.53;5089867;28;20189;-44
2023/07/04 09:54:16;;;;;;;7.90;5.43;;;;;;;31.82;46.19;94646.41;5089633;28;20242;-46
2023/07/04 09:56:44;;;;;;;6.18;5.55;;;;;;;31.80;46.62;94642.47;5089107;28;20625;-45
2023/07/04 09:59:15;;;;;;;6.57;5.85;;;;;;;31.70;46.91;94643.31;5089847;28;20190;-45
2023/07/04 10:01:43;;;;;;;5.50;5.00;;;;;;;31.75;46.46;94638.00;5089556;28;20189;-47
2023/07/04 10:04:12;;;;;;;7.72;5.50;;;;;;;31.84;46.73;94640.88;5090083;28;20566;-43
2023/07/04 10:06:43;;;;;;;6.50;4.95;;;;;;;31.99;46.39;94646.09;5089301;28;20190;-45
2023/07/04 10:09:17;;;;;;;5.18;4.68;;;;;;;31.60;46.73;94585.94;5090489;28;20197;-45
2023/07/04 10:11:44;;;;;;;9.40;5.88;;;;;;;31.84;45.77;94644.31;5093090;28;20233;-46
2023/07/04 10:14:13;;;;;;;6.22;5.63;;;;;;;31.52;46.63;94617.44;5093634;28;20189;-46
2023/07/04 10:16:48;;;;;;;5.93;4.88;;;;;;;31.55;47.33;94638.06;5093189;28;20196;-45
2023/07/04 10:19:19;;;;;;;7.20;5.15;;;;;;;31.55;46.47;94638.06;5093784;28;20217;-45
2023/07/04 10:21:50;;;;;;;7.25;5.38;;;;;;;31.47;46.42;94611.13;5093083;28;20198;-44
2023/07/04 10:24:19;;;;;;;6.18;5.55;;;;;;;31.66;46.25;94632.47;5093834;28;20654;-46
2023/07/04 10:26:49;;;;;;;6.03;5.43;;;;;;;31.74;46.74;94628.47;5093476;28;20661;-44
2023/07/04 10:29:17;;;;;;;8.45;5.65;;;;;;;31.87;46.85;94630.56;5093403;28;20225;-45
2023/07/04 10:31:45;;;;;;;6.45;5.78;;;;;;;31.83;46.94;94626.06;5093056;28;20360;-45
2023/07/04 10:34:18;;;;;;;9.68;6.18;;;;;;;31.76;46.76;94626.34;5093704;28;20186;-45
2023/07/04 10:36:50;;;;;;;10.20;5.05;;;;;;;31.70;47.10;94622.16;5093051;28;20193;-44
2023/07/04 10:39:18;;;;;;;5.40;4.88;;;;;;;31.65;47.45;94622.16;5093600;28;20299;-47
2023/07/04 10:41:52;;;;;;;7.70;5.85;;;;;;;31.77;47.20;94616.53;5092945;28;20198;-44
2023/07/04 10:44:24;;;;;;;6.70;6.10;;;;;;;31.91;46.79;94621.00;5093078;28;20246;-45
2023/07/04 10:46:57;;;;;;;8.38;6.15;;;;;;;31.92;46.85;94619.16;5093277;28;20190;-43
2023/07/04 10:49:26;;;;;;;8.30;5.80;;;;;;;31.93;46.63;94616.22;5093737;28;20216;-45
2023/07/04 10:52:14;;;;;;;8.18;5.60;;;;;;;32.04;45.82;94614.31;5093353;28;20659;-46
2023/07/04 10:54:41;;;;;;;7.45;5.88;;;;;;;32.16;46.11;94611.31;5093094;28;20190;-47
2023/07/04 10:57:15;;;;;;;7.85;5.80;;;;;;;32.24;46.11;94600.16;5093076;28;20200;-46
2023/07/04 10:59:45;;;;;;;8.70;5.95;;;;;;;32.36;45.35;94603.25;5092900;28;20193;-48
2023/07/04 11:02:29;;;;;;;9.35;5.70;;;;;;;32.42;45.16;94610.09;5092730;28;20193;-47
2023/07/04 11:05:00;;;;;;;8.27;5.90;;;;;;;32.43;44.60;94598.47;5092912;28;20203;-46
2023/07/04 11:07:29;;;;;;;8.93;5.43;;;;;;;32.56;44.43;94597.03;5092765;28;20275;-46
2023/07/04 11:09:58;;;;;;;6.65;5.78;;;;;;;32.64;44.43;94598.28;5093003;28;20209;-45
2023/07/04 11:12:33;;;;;;;8.15;5.55;;;;;;;32.64;44.29;94590.31;5092856;28;20190;-45
2023/07/04 11:15:03;;;;;;;7.88;5.53;;;;;;;32.61;44.82;94585.59;5092861;28;20276;-45
2023/07/04 11:17:33;;;;;;;7.20;5.65;;;;;;;32.44;44.89;94567.47;5092289;28;20193;-44
2023/07/04 11:20:11;;;;;;;6.25;5.65;;;;;;;32.34;45.31;94589.50;5092603;28;20406;-46
2023/07/04 11:22:58;;;;;;;9.85;5.95;;;;;;;32.07;45.76;94571.41;5091588;28;20247;-46
2023/07/04 11:25:54;;;;;;;7.70;5.75;;;;;;;31.84;45.99;94577.41;5092250;28;20218;-45
2023/07/04 11:28:27;;;;;;;6.57;5.95;;;;;;;31.67;46.78;94577.72;5092399;28;20746;-46
2023/07/04 11:31:08;;;;;;;10.30;5.63;;;;;;;31.37;46.99;94570.75;5092220;28;20193;-45
2023/07/04 11:33:41;;;;;;;9.30;5.70;;;;;;;30.85;47.12;94516.47;5092951;28;20204;-44
2023/07/04 11:36:15;;;;;;;9.65;5.85;;;;;;;31.14;47.31;94570.25;5092844;28;20184;-43
2023/07/04 11:38:52;;;;;;;6.93;5.57;;;;;;;31.17;47.99;94564.41;5092362;28;20185;-44
2023/07/04 11:41:27;;;;;;;8.38;5.65;;;;;;;31.44;47.29;94563.31;5092090;28;20568;-44